Time;durP1;ratioP1;P1;durP2;ratioP2;P2;SDS_P1;SDS_P2;PMS_P1;PMS_P2;Temp;Humidity;BMP_temperature;BMP_pressure;BME280_temperature;BME280_humidity;BME280_pressure;Samples;Min_cycle;Max_cycle;Signal;HPM_P1;HPM_P2
2022/02/06 00:00:00;;;;;;;3.63;1.45;;;;;;;0.97;100.00;96308.88;5052189;28;25010;-72
2022/02/06 00:02:29;;;;;;;4.32;1.88;;;;;;;0.84;100.00;96302.28;5051701;28;24423;-71
2022/02/06 00:04:56;;;;;;;5.07;2.25;;;;;;;0.80;100.00;96298.94;5051398;28;24423;-71
2022/02/06 00:07:23;;;;;;;6.10;2.30;;;;;;;0.76;100.00;96296.47;5051533;28;24419;-72
2022/02/06 00:09:49;;;;;;;4.50;1.75;;;;;;;0.72;100.00;96291.41;5051669;28;24443;-72
2022/02/06 00:12:16;;;;;;;6.57;2.23;;;;;;;0.73;100.00;96293.09;5050718;28;24422;-72
2022/02/06 00:14:42;;;;;;;5.72;1.90;;;;;;;0.75;100.00;96270.13;5051438;28;24427;-72
2022/02/06 00:17:10;;;;;;;5.63;1.90;;;;;;;1.01;100.00;96276.50;5051065;28;24426;-72
2022/02/06 00:19:40;;;;;;;3.88;1.60;;;;;;;1.05;100.00;96275.59;5051357;28;24514;-72
2022/02/06 00:22:09;;;;;;;4.93;1.88;;;;;;;1.04;100.00;96262.00;5051474;28;24465;-72
2022/02/06 00:24:41;;;;;;;5.63;1.80;;;;;;;1.04;100.00;96254.34;5051484;28;25060;-72
2022/02/06 00:27:13;;;;;;;10.48;2.17;;;;;;;1.20;100.00;96265.09;5050995;28;24419;-72
2022/02/06 00:29:49;;;;;;;4.88;1.90;;;;;;;1.21;100.00;96259.97;5051003;28;25087;-73
2022/02/06 00:32:29;;;;;;;6.13;2.20;;;;;;;1.24;100.00;96256.53;5051111;28;25022;-72
2022/02/06 00:40:21;;;;;;;7.30;1.48;;;;;;;1.43;100.00;96252.75;5050985;28;24477;-72
2022/02/06 00:42:47;;;;;;;7.38;2.67;;;;;;;1.47;100.00;96257.81;5051235;28;24431;-72
2022/02/06 00:45:14;;;;;;;4.07;1.33;;;;;;;1.54;100.00;96260.19;5051191;28;24446;-72
2022/02/06 00:47:43;;;;;;;5.60;1.73;;;;;;;1.56;100.00;96258.47;5050873;28;24529;-72
2022/02/06 00:50:10;;;;;;;5.70;1.92;;;;;;;1.63;100.00;96264.28;5050783;28;24439;-72
2022/02/06 00:52:40;;;;;;;3.20;1.50;;;;;;;1.65;100.00;96253.16;5050627;28;24446;-72
2022/02/06 00:55:07;;;;;;;4.72;1.48;;;;;;;1.63;100.00;96246.41;5051092;28;24451;-72
2022/02/06 00:57:34;;;;;;;3.15;1.38;;;;;;;1.85;100.00;96244.25;5050674;28;24426;-72
2022/02/06 01:00:00;;;;;;;3.40;1.42;;;;;;;1.83;100.00;96236.63;5050887;28;24415;-72
2022/02/06 01:02:27;;;;;;;8.40;2.22;;;;;;;1.88;100.00;96236.53;5050750;28;24423;-72
2022/02/06 01:04:55;;;;;;;6.63;1.60;;;;;;;1.89;100.00;96241.63;5050527;28;24434;-72
2022/02/06 01:07:21;;;;;;;7.57;1.98;;;;;;;1.88;100.00;96229.69;5050392;28;24815;-72
2022/02/06 01:09:48;;;;;;;11.75;1.77;;;;;;;1.83;100.00;96226.41;5050456;28;25017;-72
2022/02/06 01:12:19;;;;;;;5.43;1.80;;;;;;;1.86;100.00;96230.63;5050613;28;24523;-72
2022/02/06 01:14:54;;;;;;;6.72;1.50;;;;;;;1.98;100.00;96227.81;5050554;28;24469;-72
2022/02/06 01:17:26;;;;;;;9.43;1.63;;;;;;;2.03;100.00;96225.97;5050135;28;24952;-72
2022/02/06 01:20:00;;;;;;;4.60;1.60;;;;;;;2.02;100.00;96229.41;5050636;28;24765;-72
2022/02/06 01:22:31;;;;;;;4.28;1.55;;;;;;;2.03;100.00;96225.97;5050364;28;24426;-71
2022/02/06 01:25:05;;;;;;;6.85;1.55;;;;;;;2.05;100.00;96223.41;5050413;28;24415;-72
2022/02/06 01:27:39;;;;;;;6.18;1.88;;;;;;;2.02;100.00;96226.84;5050088;28;24963;-73
2022/02/06 01:30:15;;;;;;;4.68;1.40;;;;;;;2.04;100.00;96225.13;5050155;28;24542;-72
2022/02/06 01:32:49;;;;;;;4.40;1.52;;;;;;;2.03;100.00;96215.75;5050535;28;24480;-72
2022/02/06 01:35:20;;;;;;;5.07;1.50;;;;;;;2.15;98.32;96212.09;5050333;28;24431;-71
2022/02/06 01:37:54;;;;;;;5.97;1.90;;;;;;;2.17;98.87;96228.22;5050152;28;24485;-72
2022/02/06 01:40:33;;;;;;;3.80;1.58;;;;;;;2.11;100.00;96219.00;5050117;28;24427;-72
2022/02/06 01:43:04;;;;;;;5.47;1.67;;;;;;;2.13;99.48;96222.34;5050452;28;24434;-73
2022/02/06 01:45:53;;;;;;;4.55;1.77;;;;;;;2.13;99.25;96218.97;5050299;28;24411;-73
2022/02/06 02:02:21;;;;;;;3.97;1.45;;;;;;;2.57;96.53;96211.97;5049977;28;24427;-73
2022/02/06 02:05:13;;;;;;;4.80;1.40;;;;;;;2.45;96.90;96200.31;5050084;28;24431;-73
2022/02/06 02:10:51;;;;;;;6.38;1.60;;;;;;;2.43;97.63;96205.47;5049719;28;24541;-73
2022/02/06 02:13:34;;;;;;;4.45;1.45;;;;;;;2.94;94.91;96203.38;5049856;28;25265;-73
2022/02/06 02:21:56;;;;;;;5.38;1.50;;;;;;;2.46;97.67;96180.72;5049430;28;24514;-72
2022/02/06 02:24:40;;;;;;;4.10;1.48;;;;;;;2.35;98.17;96179.25;5049666;28;24437;-72
2022/02/06 02:27:16;;;;;;;4.40;1.33;;;;;;;2.46;97.88;96163.66;5049731;28;24423;-72
2022/02/06 02:30:34;;;;;;;3.70;1.37;;;;;;;2.37;97.78;96151.94;5049854;28;24507;-72
2022/02/06 02:44:40;;;;;;;4.30;1.48;;;;;;;2.58;96.21;96154.84;5053366;28;24410;-73
2022/02/06 02:47:10;;;;;;;10.60;1.50;;;;;;;2.62;95.77;96156.44;5052773;28;24419;-73
2022/02/06 02:49:36;;;;;;;7.80;1.80;;;;;;;2.70;95.45;96153.69;5053362;28;24434;-72
2022/02/06 02:52:09;;;;;;;4.77;1.43;;;;;;;2.70;95.46;96149.41;5053427;28;24462;-72
2022/02/06 02:54:39;;;;;;;5.55;1.40;;;;;;;2.55;96.23;96142.94;5052998;28;24508;-72
2022/02/06 02:57:15;;;;;;;4.88;1.52;;;;;;;2.42;97.30;96142.44;5052829;28;24462;-72
2022/02/06 02:59:54;;;;;;;4.82;1.63;;;;;;;2.79;95.18;96120.19;5052783;28;24944;-72
2022/02/06 03:02:20;;;;;;;5.32;1.40;;;;;;;2.68;94.81;96105.13;5052836;28;25093;-72
2022/02/06 03:04:52;;;;;;;2.50;1.17;;;;;;;2.67;95.94;96091.53;5052624;28;24979;-72
2022/02/06 03:07:18;;;;;;;5.15;1.45;;;;;;;2.49;96.91;96097.13;5052777;28;24430;-72
2022/02/06 03:09:47;;;;;;;5.95;1.77;;;;;;;2.38;97.58;96097.38;5052685;28;24419;-72
2022/02/06 03:12:17;;;;;;;5.23;1.53;;;;;;;2.51;95.64;96090.22;5052492;28;24785;-72
2022/02/06 03:14:49;;;;;;;10.23;1.83;;;;;;;2.31;97.72;96084.81;5071419;28;24470;-72
2022/02/06 03:17:31;;;;;;;3.90;1.35;;;;;;;2.29;98.65;96089.94;5072535;28;24438;-72
2022/02/06 03:20:05;;;;;;;8.60;1.58;;;;;;;2.33;97.42;96072.81;5072687;28;24422;-72
2022/02/06 03:22:36;;;;;;;4.22;1.50;;;;;;;2.40;97.67;96062.38;5072488;28;24530;-72
2022/02/06 03:25:07;;;;;;;5.10;1.50;;;;;;;2.31;98.09;96057.53;5072237;28;24897;-72
2022/02/06 03:27:34;;;;;;;5.80;1.50;;;;;;;2.39;97.32;96049.66;5072155;28;24568;-72
2022/02/06 03:30:01;;;;;;;5.32;1.67;;;;;;;2.25;98.13;96057.66;5072421;28;24415;-72
2022/02/06 03:32:27;;;;;;;4.80;1.70;;;;;;;2.11;99.51;96067.38;5072485;28;24529;-72
2022/02/06 03:34:54;;;;;;;8.05;1.58;;;;;;;2.48;98.14;96051.13;5072413;28;24484;-71
2022/02/06 03:37:20;;;;;;;5.95;1.65;;;;;;;2.32;97.93;96061.75;5072245;28;24429;-72
2022/02/06 03:39:51;;;;;;;7.50;1.90;;;;;;;2.39;98.18;96060.72;5072437;28;24434;-72
2022/02/06 03:42:21;;;;;;;5.22;1.80;;;;;;;2.32;98.29;96078.81;5072276;28;24427;-72
2022/02/06 03:44:53;;;;;;;6.78;1.30;;;;;;;2.32;98.71;96076.25;5072219;28;24470;-72
2022/02/06 03:47:23;;;;;;;5.97;1.52;;;;;;;2.22;100.00;96079.91;5072115;28;24468;-72
2022/02/06 03:49:55;;;;;;;2.95;1.35;;;;;;;2.23;99.33;96082.44;5071974;28;24450;-72
2022/02/06 03:52:26;;;;;;;5.63;1.98;;;;;;;2.16;100.00;96070.69;5071744;28;24446;-72
2022/02/06 03:54:52;;;;;;;4.38;1.83;;;;;;;2.13;100.00;96075.88;5071807;28;25007;-72
2022/02/06 03:57:20;;;;;;;5.43;1.67;;;;;;;2.18;100.00;96074.88;5071629;28;24820;-73
2022/02/06 03:59:46;;;;;;;5.10;1.50;;;;;;;2.13;100.00;96073.31;5071776;28;24982;-73
2022/02/06 04:02:13;;;;;;;4.18;1.50;;;;;;;2.14;100.00;96060.50;5071519;28;24497;-72
2022/02/06 04:04:39;;;;;;;5.38;1.50;;;;;;;2.20;100.00;96061.22;5071839;28;24418;-73
2022/02/06 04:07:09;;;;;;;4.75;1.60;;;;;;;2.12;100.00;96051.22;5071451;28;24427;-72
2022/02/06 04:09:41;;;;;;;4.28;1.52;;;;;;;2.08;100.00;96052.16;5071770;28;24429;-72
2022/02/06 04:12:11;;;;;;;4.57;1.60;;;;;;;2.16;100.00;96038.31;5071476;28;24473;-73
2022/02/06 04:14:52;;;;;;;6.35;1.70;;;;;;;2.33;100.00;96037.84;5071443;28;24517;-73
2022/02/06 04:17:22;;;;;;;11.73;1.73;;;;;;;2.16;100.00;96038.31;5071395;28;24526;-73
2022/02/06 04:19:48;;;;;;;5.88;1.58;;;;;;;2.33;100.00;96037.03;5071515;28;24429;-73
2022/02/06 04:22:15;;;;;;;5.95;1.77;;;;;;;2.48;99.54;96020.44;5071371;28;24441;-72
2022/02/06 04:24:41;;;;;;;6.00;1.75;;;;;;;2.40;99.82;96023.19;5071316;28;24426;-73
2022/02/06 04:27:07;;;;;;;4.75;1.60;;;;;;;2.45;99.93;96023.94;5070907;28;24421;-72
2022/02/06 04:29:34;;;;;;;7.78;2.20;;;;;;;2.29;100.00;96022.66;5068658;28;24447;-72
2022/02/06 04:32:03;;;;;;;6.97;1.60;;;;;;;2.45;100.00;96011.16;5070961;28;25033;-72
2022/02/06 04:34:29;;;;;;;4.70;1.63;;;;;;;2.25;100.00;96014.22;5051962;28;24436;-72
2022/02/06 04:37:03;;;;;;;7.40;1.50;;;;;;;2.35;100.00;96010.56;5050864;28;24522;-72
2022/02/06 04:42:33;;;;;;;4.90;1.50;;;;;;;2.53;100.00;96003.28;5026183;28;24450;-72
2022/02/06 04:45:36;;;;;;;8.40;2.00;;;;;;;2.30;100.00;95996.19;5051110;28;24449;-72
2022/02/06 04:48:27;;;;;;;4.85;1.63;;;;;;;2.27;100.00;96020.16;5063652;28;24443;-72
2022/02/06 04:51:41;;;;;;;5.63;1.70;;;;;;;2.32;100.00;96020.00;5070856;28;24485;-72
2022/02/06 05:14:03;;;;;;;4.80;1.50;;;;;;;2.69;100.00;95973.00;5050662;28;24939;-73
2022/02/06 05:16:40;;;;;;;4.22;1.77;;;;;;;2.40;100.00;95967.81;5049965;28;24426;-73
2022/02/06 05:19:44;;;;;;;4.90;1.70;;;;;;;2.64;100.00;95961.19;5050551;28;24419;-72
2022/02/06 05:25:15;;;;;;;6.82;1.85;;;;;;;2.46;100.00;95946.34;5048390;28;24435;-72
2022/02/06 05:28:01;;;;;;;4.35;1.60;;;;;;;2.43;100.00;95931.94;5050020;28;24999;-73
2022/02/06 05:30:38;;;;;;;4.55;1.63;;;;;;;2.25;100.00;95939.28;5050424;28;24423;-73
2022/02/06 05:33:05;;;;;;;6.40;1.80;;;;;;;2.40;100.00;95942.25;5050504;28;24528;-72
2022/02/06 05:35:34;;;;;;;5.85;1.98;;;;;;;2.24;100.00;95953.78;5050139;28;24968;-72
2022/02/06 05:38:02;;;;;;;5.78;1.90;;;;;;;2.30;100.00;95953.63;5049937;28;24419;-72
2022/02/06 05:40:29;;;;;;;7.10;2.78;;;;;;;2.25;100.00;95968.22;5050118;28;24971;-72
2022/02/06 05:42:55;;;;;;;8.48;3.00;;;;;;;2.22;100.00;95970.03;5050389;28;24426;-72
2022/02/06 05:45:22;;;;;;;5.28;2.53;;;;;;;2.17;100.00;95978.66;5050313;28;24414;-71
2022/02/06 05:47:48;;;;;;;8.60;3.65;;;;;;;2.11;100.00;95970.31;5050043;28;24445;-72
2022/02/06 05:50:15;;;;;;;11.65;3.22;;;;;;;2.15;100.00;95972.75;5050142;28;24422;-71
2022/02/06 05:52:42;;;;;;;7.43;2.47;;;;;;;2.15;100.00;95959.13;5049911;28;24445;-72
2022/02/06 05:55:11;;;;;;;12.65;2.58;;;;;;;2.19;100.00;95960.75;5050234;28;24419;-72
2022/02/06 05:57:38;;;;;;;5.95;2.55;;;;;;;2.27;100.00;95970.75;5050007;28;24426;-72
2022/02/06 06:00:06;;;;;;;4.95;2.33;;;;;;;2.39;100.00;95962.75;5050268;28;24418;-72
2022/02/06 06:02:33;;;;;;;9.43;3.22;;;;;;;2.22;100.00;95959.78;5050051;28;24553;-72
2022/02/06 06:04:59;;;;;;;4.93;2.03;;;;;;;2.31;100.00;95964.69;5049904;28;24517;-72
2022/02/06 06:07:26;;;;;;;5.72;2.17;;;;;;;2.16;100.00;95961.66;5049801;28;24423;-72
2022/02/06 06:09:52;;;;;;;7.55;2.90;;;;;;;2.23;100.00;95954.66;5052320;28;24535;-72
2022/02/06 06:12:20;;;;;;;13.35;3.30;;;;;;;2.19;100.00;95955.63;5053863;28;24821;-72
2022/02/06 06:14:47;;;;;;;11.50;3.67;;;;;;;2.20;100.00;95936.03;5053896;28;24423;-72
2022/02/06 06:17:14;;;;;;;7.90;3.08;;;;;;;2.25;100.00;95936.72;5053508;28;24502;-72
2022/02/06 06:19:44;;;;;;;10.70;5.25;;;;;;;2.33;100.00;95943.28;5053570;28;24426;-72
2022/02/06 06:22:12;;;;;;;6.35;2.05;;;;;;;2.46;100.00;95943.81;5053808;28;24431;-72
2022/02/06 06:24:41;;;;;;;6.18;1.40;;;;;;;2.40;100.00;95943.97;5053771;28;24423;-72
2022/02/06 06:27:08;;;;;;;5.88;1.73;;;;;;;2.39;100.00;95932.91;5053277;28;24419;-72
2022/02/06 06:29:36;;;;;;;6.32;1.95;;;;;;;2.45;100.00;95924.25;5053510;28;24411;-72
2022/02/06 06:32:02;;;;;;;4.95;1.60;;;;;;;2.47;100.00;95919.91;5053372;28;24447;-72
2022/02/06 06:34:29;;;;;;;4.22;1.75;;;;;;;2.43;100.00;95919.16;5053311;28;24425;-72
2022/02/06 06:36:55;;;;;;;6.57;1.67;;;;;;;2.44;100.00;95907.19;5053044;28;24994;-72
2022/02/06 06:39:32;;;;;;;6.93;2.00;;;;;;;2.52;100.00;95902.72;5053383;28;24430;-72
2022/02/06 06:41:58;;;;;;;6.18;2.05;;;;;;;2.47;100.00;95902.00;5053227;28;24797;-72
2022/02/06 06:44:25;;;;;;;5.10;1.77;;;;;;;2.49;100.00;95917.31;5053369;28;24423;-72
2022/02/06 06:46:53;;;;;;;4.65;1.90;;;;;;;2.55;100.00;95907.72;5052903;28;24426;-72
2022/02/06 06:49:19;;;;;;;5.00;1.80;;;;;;;2.56;100.00;95919.66;5052976;28;25030;-72
2022/02/06 06:51:46;;;;;;;5.63;1.90;;;;;;;2.58;100.00;95909.38;5052850;28;24485;-72
2022/02/06 06:54:16;;;;;;;4.75;1.75;;;;;;;2.57;100.00;95908.53;5053049;28;24526;-72
2022/02/06 06:56:50;;;;;;;6.65;2.10;;;;;;;2.60;100.00;95892.28;5052764;28;24426;-72
2022/02/06 06:59:29;;;;;;;8.00;1.92;;;;;;;2.57;100.00;95897.47;5052963;28;24438;-72
2022/02/06 07:02:16;;;;;;;5.32;1.80;;;;;;;2.54;100.00;95911.19;5053025;28;24488;-72
2022/02/06 07:04:42;;;;;;;4.07;1.80;;;;;;;2.52;100.00;95896.75;5052859;28;24422;-72
2022/02/06 07:07:09;;;;;;;12.30;1.75;;;;;;;2.49;100.00;95887.47;5052523;28;24423;-72
2022/02/06 07:09:35;;;;;;;5.05;1.80;;;;;;;2.56;100.00;95898.34;5052846;28;24419;-72
2022/02/06 07:12:02;;;;;;;6.90;2.20;;;;;;;2.67;100.00;95886.09;5052553;28;24450;-72
2022/02/06 07:14:28;;;;;;;5.90;2.10;;;;;;;2.55;100.00;95889.84;5052842;28;24438;-72
2022/02/06 07:16:56;;;;;;;8.55;1.77;;;;;;;2.58;100.00;95881.25;5052484;28;24476;-71
2022/02/06 07:19:23;;;;;;;8.13;2.20;;;;;;;2.58;100.00;95876.13;5052538;28;24430;-72
2022/02/06 07:21:49;;;;;;;5.97;1.85;;;;;;;2.47;100.00;95868.78;5052142;28;24440;-73
2022/02/06 07:24:17;;;;;;;4.80;2.00;;;;;;;2.52;100.00;95869.50;5052403;28;24968;-72
2022/02/06 07:26:46;;;;;;;7.47;2.22;;;;;;;2.45;100.00;95872.25;5052525;28;24494;-73
2022/02/06 07:29:16;;;;;;;14.27;2.42;;;;;;;2.49;100.00;95867.03;5052573;28;24518;-76
2022/02/06 07:31:43;;;;;;;8.45;1.80;;;;;;;2.60;100.00;95867.53;5052573;28;24547;-72
2022/02/06 07:34:10;;;;;;;8.32;2.17;;;;;;;2.59;100.00;95858.19;5052283;28;24435;-72
2022/02/06 07:36:38;;;;;;;5.13;1.90;;;;;;;2.53;100.00;95847.31;5051999;28;24426;-71
2022/02/06 07:39:05;;;;;;;6.28;1.95;;;;;;;2.54;100.00;95854.94;5052138;28;24427;-71
2022/02/06 07:41:31;;;;;;;7.28;2.40;;;;;;;2.57;100.00;95834.38;5052249;28;24416;-71
2022/02/06 07:43:58;;;;;;;7.13;2.08;;;;;;;2.57;100.00;95829.28;5052229;28;24415;-72
2022/02/06 07:46:30;;;;;;;10.80;2.00;;;;;;;2.63;100.00;95820.56;5052227;28;24426;-72
2022/02/06 07:48:59;;;;;;;4.70;1.83;;;;;;;2.64;100.00;95827.38;5052141;28;24521;-72
2022/02/06 07:51:27;;;;;;;4.50;1.50;;;;;;;2.64;100.00;95817.16;5051752;28;24459;-72
2022/02/06 07:53:54;;;;;;;8.18;2.20;;;;;;;2.64;100.00;95833.31;5052102;28;24415;-72
2022/02/06 07:56:20;;;;;;;5.55;1.80;;;;;;;2.72;100.00;95807.50;5051941;28;24419;-72
2022/02/06 07:58:47;;;;;;;4.93;1.80;;;;;;;2.82;100.00;95810.63;5052105;28;24427;-72
2022/02/06 08:01:13;;;;;;;6.32;2.10;;;;;;;2.84;100.00;95811.41;5051467;28;24428;-72
2022/02/06 08:03:39;;;;;;;4.35;1.95;;;;;;;2.86;100.00;95805.34;5069589;28;24431;-72
2022/02/06 08:06:06;;;;;;;7.07;2.28;;;;;;;3.00;100.00;95797.22;5066244;28;24432;-72
2022/02/06 08:08:34;;;;;;;6.37;1.73;;;;;;;2.96;100.00;95803.31;5068489;28;24495;-72
2022/02/06 08:11:01;;;;;;;6.05;1.83;;;;;;;2.93;100.00;95785.53;5071617;28;24439;-72
2022/02/06 08:13:39;;;;;;;5.73;1.87;;;;;;;2.93;100.00;95790.66;5071441;28;24999;-72
2022/02/06 08:16:06;;;;;;;6.75;2.17;;;;;;;3.01;100.00;95783.56;5071390;28;24989;-72
2022/02/06 08:18:36;;;;;;;5.63;1.80;;;;;;;3.00;100.00;95768.25;5071105;28;24776;-72
2022/02/06 08:21:03;;;;;;;6.13;1.90;;;;;;;2.95;100.00;95762.44;5064759;28;24442;-71
2022/02/06 08:23:29;;;;;;;5.50;1.70;;;;;;;3.01;100.00;95773.31;5062835;28;24998;-72
2022/02/06 08:25:57;;;;;;;7.32;1.90;;;;;;;2.97;100.00;95771.75;5071263;28;24422;-73
2022/02/06 08:28:24;;;;;;;7.25;2.20;;;;;;;3.00;100.00;95775.91;5071149;28;24418;-72
2022/02/06 08:30:50;;;;;;;7.75;2.08;;;;;;;3.06;100.00;95765.50;5071100;28;24427;-72
2022/02/06 08:33:17;;;;;;;8.13;2.45;;;;;;;3.19;100.00;95761.63;5070589;28;24457;-71
2022/02/06 08:35:45;;;;;;;5.53;2.40;;;;;;;3.26;100.00;95765.63;5071253;28;24826;-72
2022/02/06 08:38:12;;;;;;;13.77;1.80;;;;;;;3.28;100.00;95747.69;5070789;28;25009;-72
2022/02/06 08:40:39;;;;;;;7.32;1.95;;;;;;;3.40;100.00;95737.00;5070817;28;25044;-71
2022/02/06 08:43:08;;;;;;;6.63;2.10;;;;;;;3.38;100.00;95726.00;5070643;28;24415;-71
2022/02/06 08:45:35;;;;;;;5.00;1.75;;;;;;;3.40;100.00;95729.31;5070715;28;24835;-72
2022/02/06 08:48:01;;;;;;;5.15;2.03;;;;;;;3.37;100.00;95732.00;5070887;28;24450;-72
2022/02/06 08:50:29;;;;;;;5.47;1.80;;;;;;;3.38;100.00;95741.38;5070812;28;24422;-71
2022/02/06 08:52:58;;;;;;;4.80;1.90;;;;;;;3.46;100.00;95731.69;5071200;28;24496;-71
2022/02/06 08:55:26;;;;;;;4.32;1.60;;;;;;;3.50;100.00;95728.13;5070815;28;24453;-71
2022/02/06 08:57:52;;;;;;;5.53;1.60;;;;;;;3.51;100.00;95718.72;5071125;28;24423;-71
2022/02/06 09:00:23;;;;;;;3.05;1.58;;;;;;;3.57;100.00;95737.25;5070531;28;24425;-71
2022/02/06 09:02:50;;;;;;;5.75;2.08;;;;;;;3.56;100.00;95730.47;5070954;28;24422;-71
2022/02/06 09:05:18;;;;;;;6.45;1.85;;;;;;;3.60;100.00;95739.72;5066777;28;24492;-71
2022/02/06 09:07:46;;;;;;;6.03;1.88;;;;;;;3.46;100.00;95747.03;5068699;28;24861;-71
2022/02/06 09:10:15;;;;;;;3.80;1.90;;;;;;;3.49;100.00;95741.81;5062128;28;25010;-71
2022/02/06 09:12:47;;;;;;;8.90;1.92;;;;;;;3.43;100.00;95738.63;5070218;28;25015;-71
2022/02/06 09:15:14;;;;;;;7.25;1.67;;;;;;;3.50;100.00;95729.84;5070467;28;24525;-71
2022/02/06 09:17:43;;;;;;;5.80;2.42;;;;;;;3.48;100.00;95747.81;5070557;28;24435;-71
2022/02/06 09:20:11;;;;;;;6.28;1.98;;;;;;;3.50;100.00;95758.84;5067849;28;24442;-72
2022/02/06 09:22:38;;;;;;;5.22;1.70;;;;;;;3.39;100.00;95743.03;5058985;28;24836;-71
2022/02/06 09:25:05;;;;;;;4.00;1.50;;;;;;;3.47;100.00;95745.31;5065973;28;24438;-71
2022/02/06 09:27:35;;;;;;;3.35;1.50;;;;;;;3.37;100.00;95737.97;5051929;28;24778;-72
2022/02/06 09:30:01;;;;;;;4.40;1.70;;;;;;;3.37;100.00;95730.28;5069778;28;24519;-72
2022/02/06 09:37:20;;;;;;;5.63;1.83;;;;;;;3.50;100.00;95727.28;5067769;28;24443;-72
2022/02/06 09:39:46;;;;;;;5.78;2.17;;;;;;;3.59;100.00;95725.22;5053823;28;24427;-71
2022/02/06 09:42:14;;;;;;;7.32;2.10;;;;;;;3.61;100.00;95714.94;5060486;28;24441;-72
2022/02/06 09:44:42;;;;;;;3.70;1.48;;;;;;;3.62;100.00;95712.31;5059219;28;24431;-72
2022/02/06 09:47:10;;;;;;;18.48;10.68;;;;;;;3.72;100.00;95707.69;5062377;28;24899;-72
2022/02/06 09:49:36;;;;;;;4.13;1.80;;;;;;;3.69;100.00;95715.47;5054569;28;24418;-71
2022/02/06 09:52:05;;;;;;;5.97;1.60;;;;;;;3.63;100.00;95700.31;5066832;28;24878;-71
2022/02/06 09:54:31;;;;;;;2.92;1.27;;;;;;;3.68;100.00;95697.63;5063670;28;24442;-70
2022/02/06 09:57:00;;;;;;;3.33;1.50;;;;;;;3.72;100.00;95687.19;5070934;28;24433;-72
2022/02/06 09:59:30;;;;;;;3.97;1.65;;;;;;;3.69;100.00;95686.47;5060667;28;24446;-72
2022/02/06 10:01:57;;;;;;;3.28;1.48;;;;;;;3.74;100.00;95672.59;5055790;28;24439;-72
2022/02/06 10:04:26;;;;;;;6.55;1.55;;;;;;;3.83;100.00;95672.25;5053900;28;24412;-71
2022/02/06 10:07:08;;;;;;;4.28;1.55;;;;;;;3.95;100.00;95659.88;5069530;28;24488;-71
2022/02/06 10:09:39;;;;;;;5.07;1.60;;;;;;;4.03;100.00;95645.84;5073397;28;24426;-74
2022/02/06 10:12:08;;;;;;;7.85;1.30;;;;;;;3.99;100.00;95644.31;5073020;28;24459;-74
2022/02/06 10:14:35;;;;;;;2.90;1.20;;;;;;;4.04;100.00;95644.13;5073659;28;24430;-72
2022/02/06 10:17:01;;;;;;;11.27;1.70;;;;;;;3.95;100.00;95637.66;5072954;28;24427;-72
2022/02/06 10:19:28;;;;;;;4.60;1.35;;;;;;;4.01;100.00;95641.72;5073519;28;25306;-72
2022/02/06 10:21:55;;;;;;;3.83;1.35;;;;;;;3.99;100.00;95636.63;5064706;28;24484;-71
2022/02/06 10:24:29;;;;;;;4.25;1.50;;;;;;;3.97;100.00;95648.69;5064640;28;24976;-72
2022/02/06 10:27:16;;;;;;;5.45;2.55;;;;;;;3.96;100.00;95631.63;5053355;28;24438;-71
2022/02/06 10:29:44;;;;;;;3.05;1.50;;;;;;;4.03;100.00;95638.16;5069091;28;24792;-71
2022/02/06 10:32:16;;;;;;;5.55;1.50;;;;;;;4.06;100.00;95617.56;5071261;28;24461;-71
2022/02/06 10:34:44;;;;;;;4.32;1.30;;;;;;;4.03;100.00;95619.41;5073539;28;24422;-71
2022/02/06 10:37:16;;;;;;;4.53;1.40;;;;;;;4.04;100.00;95615.94;5073129;28;24427;-71
2022/02/06 10:39:57;;;;;;;3.42;1.48;;;;;;;4.13;100.00;95603.59;5072632;28;24438;-71
2022/02/06 10:42:26;;;;;;;5.25;1.25;;;;;;;4.23;100.00;95608.38;5060529;28;24432;-71
2022/02/06 10:45:14;;;;;;;2.78;1.08;;;;;;;4.31;100.00;95591.78;5053299;28;24423;-73
2022/02/06 10:47:41;;;;;;;5.50;1.70;;;;;;;4.44;100.00;95596.38;5059535;28;24431;-71
2022/02/06 10:50:11;;;;;;;2.22;1.15;;;;;;;4.44;100.00;95586.13;5072981;28;24438;-72
2022/02/06 10:52:37;;;;;;;4.68;1.50;;;;;;;4.47;100.00;95576.59;5072465;28;24458;-72
2022/02/06 10:55:06;;;;;;;2.95;1.20;;;;;;;4.40;100.00;95557.22;5072252;28;24426;-72
2022/02/06 10:57:34;;;;;;;5.03;2.37;;;;;;;4.41;100.00;95558.06;5072908;28;24433;-72
2022/02/06 11:00:03;;;;;;;3.38;1.20;;;;;;;4.38;100.00;95553.91;5072239;28;24437;-72
2022/02/06 11:02:32;;;;;;;3.25;1.10;;;;;;;4.56;100.00;95553.13;5052771;28;25010;-72
2022/02/06 11:05:02;;;;;;;3.80;1.35;;;;;;;4.51;100.00;95551.63;5052850;28;24419;-72
2022/02/06 11:07:29;;;;;;;3.00;1.42;;;;;;;4.69;100.00;95537.19;5052465;28;24430;-72
2022/02/06 11:10:14;;;;;;;3.63;1.30;;;;;;;4.71;100.00;95537.94;5070450;28;24430;-72
2022/02/06 11:12:43;;;;;;;2.03;1.00;;;;;;;4.64;100.00;95541.72;5072762;28;24461;-71
2022/02/06 11:15:29;;;;;;;2.72;1.20;;;;;;;4.49;100.00;95531.19;5070877;28;24422;-72
2022/02/06 11:18:11;;;;;;;2.85;1.13;;;;;;;4.35;100.00;95529.22;5050406;28;24493;-72
2022/02/06 11:20:39;;;;;;;4.65;0.90;;;;;;;4.37;100.00;95531.69;5061137;28;24443;-71
2022/02/06 11:23:06;;;;;;;3.42;1.00;;;;;;;4.29;100.00;95508.13;5072871;28;24419;-71
2022/02/06 11:25:34;;;;;;;1.85;0.80;;;;;;;4.27;100.00;95515.91;5071832;28;24435;-72
2022/02/06 11:28:04;;;;;;;2.05;0.85;;;;;;;4.26;100.00;95503.13;5071325;28;24815;-72
2022/02/06 11:30:30;;;;;;;2.97;1.00;;;;;;;4.17;100.00;95511.22;5066333;28;24957;-72
2022/02/06 11:32:57;;;;;;;3.10;1.10;;;;;;;4.14;100.00;95496.78;5051267;28;24953;-72
2022/02/06 11:35:27;;;;;;;9.18;0.90;;;;;;;3.98;100.00;95475.28;5050873;28;24412;-72
2022/02/06 11:43:58;;;;;;;3.43;1.50;;;;;;;3.95;100.00;95470.25;5052197;28;25083;-72
2022/02/06 11:46:29;;;;;;;5.45;1.50;;;;;;;3.98;100.00;95468.41;5051686;28;24496;-71
2022/02/06 11:49:06;;;;;;;7.03;1.25;;;;;;;3.87;100.00;95470.59;5051814;28;24419;-71
2022/02/06 11:51:32;;;;;;;2.38;1.00;;;;;;;3.88;100.00;95459.44;5052000;28;24518;-72
2022/02/06 11:53:59;;;;;;;1.83;0.60;;;;;;;3.80;100.00;95451.25;5051678;28;24451;-71
2022/02/06 11:56:36;;;;;;;1.77;0.67;;;;;;;3.80;100.00;95436.69;5051929;28;24563;-71
2022/02/06 11:59:07;;;;;;;2.00;0.90;;;;;;;3.82;100.00;95440.03;5062448;28;24429;-72
2022/02/06 12:01:34;;;;;;;1.45;0.65;;;;;;;3.74;100.00;95436.13;5058392;28;24467;-72
2022/02/06 12:04:04;;;;;;;1.52;0.70;;;;;;;3.79;100.00;95418.84;5052043;28;24426;-71
2022/02/06 12:06:50;;;;;;;2.75;0.80;;;;;;;3.70;100.00;95407.22;5050553;28;25312;-71
2022/02/06 12:09:19;;;;;;;7.63;0.90;;;;;;;3.89;100.00;95402.16;5071124;28;24430;-71
2022/02/06 12:12:11;;;;;;;1.85;0.70;;;;;;;3.80;100.00;95389.75;5071440;28;24530;-71
2022/02/06 12:14:43;;;;;;;2.08;0.80;;;;;;;3.79;100.00;95383.81;5091505;28;24454;-71
2022/02/06 12:17:18;;;;;;;2.25;0.60;;;;;;;3.77;100.00;95384.75;5068864;28;24525;-70
2022/02/06 12:20:03;;;;;;;2.30;0.73;;;;;;;3.82;100.00;95375.16;5067015;28;25221;-71
2022/02/06 12:22:41;;;;;;;1.60;0.63;;;;;;;3.86;100.00;95364.72;5071202;28;24453;-71
2022/02/06 12:25:19;;;;;;;1.88;0.90;;;;;;;3.83;100.00;95353.78;5076925;28;24469;-71
2022/02/06 12:27:49;;;;;;;1.77;0.70;;;;;;;3.81;100.00;95348.69;5064982;28;24434;-72
2022/02/06 12:30:21;;;;;;;1.23;0.70;;;;;;;3.84;100.00;95343.44;5053093;28;24490;-72
2022/02/06 12:32:48;;;;;;;2.15;0.82;;;;;;;3.80;100.00;95335.97;5070859;28;24990;-72
2022/02/06 12:38:07;;;;;;;1.83;0.88;;;;;;;3.84;100.00;95327.25;5070731;28;24441;-72
2022/02/06 12:40:34;;;;;;;1.85;0.80;;;;;;;3.94;100.00;95320.84;5070413;28;24441;-71
2022/02/06 12:43:04;;;;;;;0.75;0.52;;;;;;;3.93;100.00;95319.19;5070729;28;24411;-71
2022/02/06 12:45:33;;;;;;;2.20;0.70;;;;;;;3.98;100.00;95313.84;5070369;28;24437;-71
2022/02/06 12:48:01;;;;;;;0.80;0.63;;;;;;;3.96;100.00;95319.03;5066940;28;24438;-71
2022/02/06 12:50:30;;;;;;;1.55;0.60;;;;;;;3.87;100.00;95296.38;5050517;28;24423;-71
2022/02/06 12:52:58;;;;;;;1.40;0.50;;;;;;;3.94;100.00;95320.84;5051705;28;24475;-71
2022/02/06 12:55:28;;;;;;;0.93;0.63;;;;;;;3.90;100.00;95306.50;5070407;28;24418;-72
2022/02/06 12:57:56;;;;;;;1.60;0.60;;;;;;;3.83;100.00;95288.00;5070203;28;25255;-73
2022/02/06 13:00:35;;;;;;;3.33;0.70;;;;;;;3.83;100.00;95274.38;5069760;28;25038;-72
2022/02/06 13:03:19;;;;;;;2.83;0.77;;;;;;;3.81;100.00;95266.72;5087995;28;24484;-72
2022/02/06 13:05:53;;;;;;;0.82;0.47;;;;;;;3.77;100.00;95266.94;5089219;28;24542;-72
2022/02/06 13:08:19;;;;;;;1.20;0.50;;;;;;;3.82;100.00;95265.00;5071291;28;24430;-73